Terminal Aerodrome Forecast
Issued by NWS

Home | Current Version | Previous Version | Text Only | Print | Product List | Glossary On
Versions: 1 2 3 4 5 6 7 8 9 10 11 12 13 14
884
FTUS45 KABQ 302325
TAFSAF
TAF
KSAF 302325Z 3100/3124 25011KT P6SM SCT110 SCT200
     FM310200 VRB05KT P6SM SCT120
     FM310400 13008KT P6SM SCT140
     FM310600 02007KT P6SM SCT150
     FM312000 15011KT P6SM VCSH BKN100=

USA.gov is the U.S. government's official web portal to all federal, state and local government web resources and services.